sensor_id;sensor_type;location;lat;lon;timestamp;P1;durP1;ratioP1;P2;durP2;ratioP2
69900;SDS011;57183;50.930;5.406;2023-02-03T00:00:09;6.18;;;2.30;;
69900;SDS011;57183;50.930;5.406;2023-02-03T00:02:35;2.13;;;1.73;;
69900;SDS011;57183;50.930;5.406;2023-02-03T00:05:01;7.82;;;2.30;;
69900;SDS011;57183;50.930;5.406;2023-02-03T00:07:27;8.00;;;2.50;;
69900;SDS011;57183;50.930;5.406;2023-02-03T00:09:54;11.75;;;2.97;;
69900;SDS011;57183;50.930;5.406;2023-02-03T00:12:21;6.93;;;2.65;;
69900;SDS011;57183;50.930;5.406;2023-02-03T00:14:47;8.95;;;2.53;;
69900;SDS011;57183;50.930;5.406;2023-02-03T00:17:12;7.45;;;2.38;;
69900;SDS011;57183;50.930;5.406;2023-02-03T00:19:39;9.57;;;2.78;;
69900;SDS011;57183;50.930;5.406;2023-02-03T00:22:05;14.07;;;3.22;;
69900;SDS011;57183;50.930;5.406;2023-02-03T00:24:30;5.35;;;2.40;;
69900;SDS011;57183;50.930;5.406;2023-02-03T00:26:56;5.57;;;2.10;;
69900;SDS011;57183;50.930;5.406;2023-02-03T00:29:22;4.40;;;1.98;;
69900;SDS011;57183;50.930;5.406;2023-02-03T00:31:50;5.32;;;2.50;;
69900;SDS011;57183;50.930;5.406;2023-02-03T00:34:19;5.57;;;2.67;;
69900;SDS011;57183;50.930;5.406;2023-02-03T00:36:45;4.53;;;2.17;;
69900;SDS011;57183;50.930;5.406;2023-02-03T00:39:12;5.80;;;2.72;;
69900;SDS011;57183;50.930;5.406;2023-02-03T00:41:39;5.25;;;1.88;;
69900;SDS011;57183;50.930;5.406;2023-02-03T00:44:04;9.57;;;2.33;;
69900;SDS011;57183;50.930;5.406;2023-02-03T00:46:30;7.72;;;2.17;;
69900;SDS011;57183;50.930;5.406;2023-02-03T00:48:56;3.80;;;2.03;;
69900;SDS011;57183;50.930;5.406;2023-02-03T00:51:22;4.30;;;2.05;;
69900;SDS011;57183;50.930;5.406;2023-02-03T00:53:47;10.18;;;1.88;;
69900;SDS011;57183;50.930;5.406;2023-02-03T00:56:13;9.40;;;2.90;;
69900;SDS011;57183;50.930;5.406;2023-02-03T00:58:39;3.33;;;1.60;;
69900;SDS011;57183;50.930;5.406;2023-02-03T01:01:05;5.53;;;1.92;;
69900;SDS011;57183;50.930;5.406;2023-02-03T01:03:31;4.72;;;1.88;;
69900;SDS011;57183;50.930;5.406;2023-02-03T01:06:07;5.93;;;1.50;;
69900;SDS011;57183;50.930;5.406;2023-02-03T01:08:44;9.13;;;2.08;;
69900;SDS011;57183;50.930;5.406;2023-02-03T01:11:12;5.93;;;2.13;;
69900;SDS011;57183;50.930;5.406;2023-02-03T01:13:41;4.18;;;2.00;;
69900;SDS011;57183;50.930;5.406;2023-02-03T01:16:11;6.28;;;2.17;;
69900;SDS011;57183;50.930;5.406;2023-02-03T01:18:39;4.47;;;2.13;;
69900;SDS011;57183;50.930;5.406;2023-02-03T01:21:06;5.13;;;1.98;;
69900;SDS011;57183;50.930;5.406;2023-02-03T01:23:34;5.50;;;1.88;;
69900;SDS011;57183;50.930;5.406;2023-02-03T01:26:04;9.50;;;2.45;;
69900;SDS011;57183;50.930;5.406;2023-02-03T01:28:31;7.25;;;2.00;;
69900;SDS011;57183;50.930;5.406;2023-02-03T01:30:57;6.68;;;2.28;;
69900;SDS011;57183;50.930;5.406;2023-02-03T01:33:43;9.27;;;2.90;;
69900;SDS011;57183;50.930;5.406;2023-02-03T01:36:12;7.82;;;2.30;;
69900;SDS011;57183;50.930;5.406;2023-02-03T01:38:41;6.68;;;2.53;;
69900;SDS011;57183;50.930;5.406;2023-02-03T01:41:08;4.22;;;2.08;;
69900;SDS011;57183;50.930;5.406;2023-02-03T01:43:38;6.78;;;2.22;;
69900;SDS011;57183;50.930;5.406;2023-02-03T01:46:17;5.90;;;2.60;;
69900;SDS011;57183;50.930;5.406;2023-02-03T01:48:55;6.88;;;2.97;;
69900;SDS011;57183;50.930;5.406;2023-02-03T01:51:36;8.70;;;1.98;;
69900;SDS011;57183;50.930;5.406;2023-02-03T01:54:04;9.23;;;2.33;;
69900;SDS011;57183;50.930;5.406;2023-02-03T01:56:35;5.57;;;2.78;;
69900;SDS011;57183;50.930;5.406;2023-02-03T01:59:04;6.68;;;1.95;;
69900;SDS011;57183;50.930;5.406;2023-02-03T02:01:31;5.70;;;2.13;;
69900;SDS011;57183;50.930;5.406;2023-02-03T02:03:58;6.97;;;2.85;;
69900;SDS011;57183;50.930;5.406;2023-02-03T02:06:26;7.63;;;2.10;;
69900;SDS011;57183;50.930;5.406;2023-02-03T02:08:53;5.50;;;2.50;;
69900;SDS011;57183;50.930;5.406;2023-02-03T02:11:21;7.57;;;2.35;;
69900;SDS011;57183;50.930;5.406;2023-02-03T02:13:47;4.28;;;1.85;;
69900;SDS011;57183;50.930;5.406;2023-02-03T02:16:17;3.55;;;1.85;;
69900;SDS011;57183;50.930;5.406;2023-02-03T02:26:59;8.18;;;2.30;;
69900;SDS011;57183;50.930;5.406;2023-02-03T02:35:18;5.25;;;1.90;;
69900;SDS011;57183;50.930;5.406;2023-02-03T02:38:00;3.33;;;2.05;;
69900;SDS011;57183;50.930;5.406;2023-02-03T02:43:06;4.90;;;2.10;;
69900;SDS011;57183;50.930;5.406;2023-02-03T02:48:16;3.03;;;2.20;;
69900;SDS011;57183;50.930;5.406;2023-02-03T02:50:57;5.68;;;2.13;;
69900;SDS011;57183;50.930;5.406;2023-02-03T02:53:25;6.13;;;2.35;;
69900;SDS011;57183;50.930;5.406;2023-02-03T02:55:56;7.68;;;2.25;;
69900;SDS011;57183;50.930;5.406;2023-02-03T02:58:24;7.85;;;2.22;;
69900;SDS011;57183;50.930;5.406;2023-02-03T03:00:52;5.68;;;2.97;;
69900;SDS011;57183;50.930;5.406;2023-02-03T03:03:22;7.10;;;3.25;;
69900;SDS011;57183;50.930;5.406;2023-02-03T03:06:07;7.00;;;2.05;;
69900;SDS011;57183;50.930;5.406;2023-02-03T03:11:02;8.77;;;1.90;;
69900;SDS011;57183;50.930;5.406;2023-02-03T03:13:31;7.45;;;2.20;;
69900;SDS011;57183;50.930;5.406;2023-02-03T03:16:00;6.80;;;1.50;;
69900;SDS011;57183;50.930;5.406;2023-02-03T03:18:30;5.20;;;2.13;;
69900;SDS011;57183;50.930;5.406;2023-02-03T03:21:00;8.63;;;2.38;;
69900;SDS011;57183;50.930;5.406;2023-02-03T03:23:35;8.32;;;1.48;;
69900;SDS011;57183;50.930;5.406;2023-02-03T03:26:13;5.35;;;1.92;;
69900;SDS011;57183;50.930;5.406;2023-02-03T03:28:47;8.27;;;1.83;;
69900;SDS011;57183;50.930;5.406;2023-02-03T03:31:16;7.65;;;1.52;;
69900;SDS011;57183;50.930;5.406;2023-02-03T03:33:44;5.82;;;1.80;;
69900;SDS011;57183;50.930;5.406;2023-02-03T03:38:41;5.25;;;1.67;;
69900;SDS011;57183;50.930;5.406;2023-02-03T03:41:18;5.57;;;1.40;;
69900;SDS011;57183;50.930;5.406;2023-02-03T03:44:02;6.00;;;1.60;;
69900;SDS011;57183;50.930;5.406;2023-02-03T03:46:34;5.45;;;2.03;;
69900;SDS011;57183;50.930;5.406;2023-02-03T03:49:05;6.50;;;1.55;;
69900;SDS011;57183;50.930;5.406;2023-02-03T03:54:14;7.75;;;1.33;;
69900;SDS011;57183;50.930;5.406;2023-02-03T03:56:55;9.98;;;1.48;;
69900;SDS011;57183;50.930;5.406;2023-02-03T03:59:25;5.30;;;2.25;;
69900;SDS011;57183;50.930;5.406;2023-02-03T04:01:54;4.25;;;0.93;;
69900;SDS011;57183;50.930;5.406;2023-02-03T04:04:23;5.65;;;1.42;;
69900;SDS011;57183;50.930;5.406;2023-02-03T04:06:51;4.35;;;1.52;;
69900;SDS011;57183;50.930;5.406;2023-02-03T04:09:18;7.45;;;1.00;;
69900;SDS011;57183;50.930;5.406;2023-02-03T04:11:44;6.00;;;1.88;;
69900;SDS011;57183;50.930;5.406;2023-02-03T04:14:30;2.88;;;0.90;;
69900;SDS011;57183;50.930;5.406;2023-02-03T04:16:58;6.07;;;1.08;;
69900;SDS011;57183;50.930;5.406;2023-02-03T04:19:24;4.47;;;1.10;;
69900;SDS011;57183;50.930;5.406;2023-02-03T04:21:50;8.88;;;1.15;;
69900;SDS011;57183;50.930;5.406;2023-02-03T04:24:16;6.18;;;0.90;;
69900;SDS011;57183;50.930;5.406;2023-02-03T04:26:42;7.75;;;1.92;;
69900;SDS011;57183;50.930;5.406;2023-02-03T04:29:08;6.55;;;1.00;;
69900;SDS011;57183;50.930;5.406;2023-02-03T04:31:33;5.93;;;1.52;;
69900;SDS011;57183;50.930;5.406;2023-02-03T04:33:59;4.35;;;0.93;;
69900;SDS011;57183;50.930;5.406;2023-02-03T04:36:25;4.93;;;0.88;;
69900;SDS011;57183;50.930;5.406;2023-02-03T04:38:51;4.60;;;1.00;;
69900;SDS011;57183;50.930;5.406;2023-02-03T04:41:17;5.57;;;2.03;;
69900;SDS011;57183;50.930;5.406;2023-02-03T04:43:42;3.50;;;0.82;;
69900;SDS011;57183;50.930;5.406;2023-02-03T04:46:08;5.38;;;0.80;;
69900;SDS011;57183;50.930;5.406;2023-02-03T04:48:34;6.10;;;1.23;;
69900;SDS011;57183;50.930;5.406;2023-02-03T04:51:01;6.78;;;1.38;;
69900;SDS011;57183;50.930;5.406;2023-02-03T04:53:27;7.57;;;1.10;;
69900;SDS011;57183;50.930;5.406;2023-02-03T04:55:53;6.97;;;1.50;;
69900;SDS011;57183;50.930;5.406;2023-02-03T04:58:19;4.78;;;1.25;;
69900;SDS011;57183;50.930;5.406;2023-02-03T05:00:45;2.35;;;1.00;;
69900;SDS011;57183;50.930;5.406;2023-02-03T05:03:10;2.83;;;0.90;;
69900;SDS011;57183;50.930;5.406;2023-02-03T05:05:36;4.78;;;1.30;;
69900;SDS011;57183;50.930;5.406;2023-02-03T05:08:01;5.97;;;1.55;;
69900;SDS011;57183;50.930;5.406;2023-02-03T05:10:27;4.00;;;0.88;;
69900;SDS011;57183;50.930;5.406;2023-02-03T05:12:53;7.32;;;1.13;;
69900;SDS011;57183;50.930;5.406;2023-02-03T05:15:18;6.72;;;1.10;;
69900;SDS011;57183;50.930;5.406;2023-02-03T05:17:44;3.55;;;0.80;;
69900;SDS011;57183;50.930;5.406;2023-02-03T05:20:10;8.02;;;1.35;;
69900;SDS011;57183;50.930;5.406;2023-02-03T05:22:36;6.22;;;1.15;;
69900;SDS011;57183;50.930;5.406;2023-02-03T05:25:02;8.77;;;1.25;;
69900;SDS011;57183;50.930;5.406;2023-02-03T05:27:28;4.55;;;0.98;;
69900;SDS011;57183;50.930;5.406;2023-02-03T05:29:55;3.28;;;0.88;;
69900;SDS011;57183;50.930;5.406;2023-02-03T05:32:20;3.95;;;0.82;;
69900;SDS011;57183;50.930;5.406;2023-02-03T05:34:46;5.95;;;1.08;;
69900;SDS011;57183;50.930;5.406;2023-02-03T05:37:12;5.80;;;1.80;;
69900;SDS011;57183;50.930;5.406;2023-02-03T05:39:37;10.30;;;1.40;;
69900;SDS011;57183;50.930;5.406;2023-02-03T05:42:03;5.63;;;0.90;;
69900;SDS011;57183;50.930;5.406;2023-02-03T05:44:29;11.82;;;1.08;;
69900;SDS011;57183;50.930;5.406;2023-02-03T05:46:56;6.75;;;1.00;;
69900;SDS011;57183;50.930;5.406;2023-02-03T05:49:23;5.28;;;1.02;;
69900;SDS011;57183;50.930;5.406;2023-02-03T05:51:50;5.50;;;0.82;;
69900;SDS011;57183;50.930;5.406;2023-02-03T05:54:17;4.22;;;1.05;;
69900;SDS011;57183;50.930;5.406;2023-02-03T05:56:43;3.30;;;0.68;;
69900;SDS011;57183;50.930;5.406;2023-02-03T05:59:08;4.30;;;1.00;;
69900;SDS011;57183;50.930;5.406;2023-02-03T06:01:34;7.30;;;1.00;;
69900;SDS011;57183;50.930;5.406;2023-02-03T06:04:01;6.07;;;1.08;;
69900;SDS011;57183;50.930;5.406;2023-02-03T06:06:28;3.85;;;0.98;;
69900;SDS011;57183;50.930;5.406;2023-02-03T06:08:58;5.22;;;0.90;;
69900;SDS011;57183;50.930;5.406;2023-02-03T06:11:28;2.75;;;0.70;;
69900;SDS011;57183;50.930;5.406;2023-02-03T06:13:54;7.50;;;0.90;;
69900;SDS011;57183;50.930;5.406;2023-02-03T06:16:22;5.72;;;0.90;;
69900;SDS011;57183;50.930;5.406;2023-02-03T06:18:49;2.88;;;0.60;;
69900;SDS011;57183;50.930;5.406;2023-02-03T06:21:16;5.47;;;0.77;;
69900;SDS011;57183;50.930;5.406;2023-02-03T06:23:42;8.38;;;1.17;;
69900;SDS011;57183;50.930;5.406;2023-02-03T06:26:07;2.72;;;0.70;;
69900;SDS011;57183;50.930;5.406;2023-02-03T06:28:33;3.40;;;0.63;;
69900;SDS011;57183;50.930;5.406;2023-02-03T06:30:59;5.28;;;0.98;;
69900;SDS011;57183;50.930;5.406;2023-02-03T06:33:25;1.42;;;0.73;;
69900;SDS011;57183;50.930;5.406;2023-02-03T06:35:52;4.40;;;0.80;;
69900;SDS011;57183;50.930;5.406;2023-02-03T06:38:18;2.47;;;0.70;;
69900;SDS011;57183;50.930;5.406;2023-02-03T06:40:47;5.22;;;1.25;;
69900;SDS011;57183;50.930;5.406;2023-02-03T06:43:13;3.88;;;0.70;;
69900;SDS011;57183;50.930;5.406;2023-02-03T06:45:39;7.90;;;0.68;;
69900;SDS011;57183;50.930;5.406;2023-02-03T06:48:05;5.65;;;0.77;;
69900;SDS011;57183;50.930;5.406;2023-02-03T06:50:31;3.20;;;0.65;;
69900;SDS011;57183;50.930;5.406;2023-02-03T06:52:57;4.80;;;0.50;;
69900;SDS011;57183;50.930;5.406;2023-02-03T06:55:23;5.93;;;0.60;;
69900;SDS011;57183;50.930;5.406;2023-02-03T06:57:49;6.82;;;1.88;;
69900;SDS011;57183;50.930;5.406;2023-02-03T07:00:16;5.20;;;0.70;;
69900;SDS011;57183;50.930;5.406;2023-02-03T07:02:42;4.40;;;0.65;;
69900;SDS011;57183;50.930;5.406;2023-02-03T07:05:08;5.07;;;0.90;;
69900;SDS011;57183;50.930;5.406;2023-02-03T07:07:34;4.07;;;0.70;;
69900;SDS011;57183;50.930;5.406;2023-02-03T07:10:01;5.78;;;0.82;;
69900;SDS011;57183;50.930;5.406;2023-02-03T07:12:26;4.80;;;0.80;;
69900;SDS011;57183;50.930;5.406;2023-02-03T07:14:52;3.78;;;0.57;;
69900;SDS011;57183;50.930;5.406;2023-02-03T07:17:18;2.15;;;0.60;;
69900;SDS011;57183;50.930;5.406;2023-02-03T07:19:44;3.13;;;0.60;;
69900;SDS011;57183;50.930;5.406;2023-02-03T07:22:09;1.98;;;0.52;;
69900;SDS011;57183;50.930;5.406;2023-02-03T07:24:35;0.82;;;0.47;;
69900;SDS011;57183;50.930;5.406;2023-02-03T07:27:01;2.65;;;0.70;;
69900;SDS011;57183;50.930;5.406;2023-02-03T07:29:27;3.22;;;0.50;;
69900;SDS011;57183;50.930;5.406;2023-02-03T07:31:52;2.03;;;0.65;;
69900;SDS011;57183;50.930;5.406;2023-02-03T07:34:18;3.45;;;0.68;;
69900;SDS011;57183;50.930;5.406;2023-02-03T07:36:44;2.58;;;0.68;;
69900;SDS011;57183;50.930;5.406;2023-02-03T07:39:10;3.72;;;0.65;;
69900;SDS011;57183;50.930;5.406;2023-02-03T07:41:36;13.43;;;2.35;;
69900;SDS011;57183;50.930;5.406;2023-02-03T07:44:01;2.17;;;0.80;;
69900;SDS011;57183;50.930;5.406;2023-02-03T07:46:27;4.55;;;1.52;;
69900;SDS011;57183;50.930;5.406;2023-02-03T07:48:53;3.65;;;0.52;;
69900;SDS011;57183;50.930;5.406;2023-02-03T07:51:19;3.05;;;0.68;;
69900;SDS011;57183;50.930;5.406;2023-02-03T07:53:44;3.80;;;0.77;;
69900;SDS011;57183;50.930;5.406;2023-02-03T07:56:10;5.50;;;0.75;;
69900;SDS011;57183;50.930;5.406;2023-02-03T07:58:36;3.15;;;0.90;;
69900;SDS011;57183;50.930;5.406;2023-02-03T08:01:08;4.07;;;0.88;;
69900;SDS011;57183;50.930;5.406;2023-02-03T08:03:36;4.88;;;1.10;;
69900;SDS011;57183;50.930;5.406;2023-02-03T08:06:02;5.35;;;1.27;;
69900;SDS011;57183;50.930;5.406;2023-02-03T08:08:27;5.72;;;1.25;;
69900;SDS011;57183;50.930;5.406;2023-02-03T08:10:56;8.65;;;1.08;;
69900;SDS011;57183;50.930;5.406;2023-02-03T08:13:22;7.35;;;1.45;;
69900;SDS011;57183;50.930;5.406;2023-02-03T08:15:47;5.03;;;0.85;;
69900;SDS011;57183;50.930;5.406;2023-02-03T08:18:13;2.15;;;1.15;;
69900;SDS011;57183;50.930;5.406;2023-02-03T08:20:39;2.15;;;1.00;;
69900;SDS011;57183;50.930;5.406;2023-02-03T08:23:05;3.92;;;0.68;;
69900;SDS011;57183;50.930;5.406;2023-02-03T08:25:31;2.50;;;0.60;;
69900;SDS011;57183;50.930;5.406;2023-02-03T08:27:57;7.25;;;0.65;;
69900;SDS011;57183;50.930;5.406;2023-02-03T08:30:22;4.65;;;0.77;;
69900;SDS011;57183;50.930;5.406;2023-02-03T08:32:49;1.80;;;0.80;;
69900;SDS011;57183;50.930;5.406;2023-02-03T08:35:14;7.22;;;0.90;;
69900;SDS011;57183;50.930;5.406;2023-02-03T08:37:40;1.92;;;0.57;;
69900;SDS011;57183;50.930;5.406;2023-02-03T08:40:06;3.45;;;0.80;;
69900;SDS011;57183;50.930;5.406;2023-02-03T08:42:32;5.50;;;0.95;;
69900;SDS011;57183;50.930;5.406;2023-02-03T08:44:58;3.33;;;0.63;;
69900;SDS011;57183;50.930;5.406;2023-02-03T08:47:24;4.30;;;0.82;;
69900;SDS011;57183;50.930;5.406;2023-02-03T08:49:50;2.47;;;0.90;;
69900;SDS011;57183;50.930;5.406;2023-02-03T08:52:16;4.32;;;1.30;;
69900;SDS011;57183;50.930;5.406;2023-02-03T08:54:42;3.45;;;0.80;;
69900;SDS011;57183;50.930;5.406;2023-02-03T08:57:08;4.20;;;0.80;;
69900;SDS011;57183;50.930;5.406;2023-02-03T08:59:35;4.22;;;0.90;;
69900;SDS011;57183;50.930;5.406;2023-02-03T09:02:03;6.50;;;2.13;;
69900;SDS011;57183;50.930;5.406;2023-02-03T09:04:30;2.85;;;1.05;;
69900;SDS011;57183;50.930;5.406;2023-02-03T09:06:57;3.25;;;0.77;;
69900;SDS011;57183;50.930;5.406;2023-02-03T09:09:24;3.75;;;1.30;;
69900;SDS011;57183;50.930;5.406;2023-02-03T09:11:50;4.78;;;1.20;;
69900;SDS011;57183;50.930;5.406;2023-02-03T09:14:17;3.08;;;0.85;;
69900;SDS011;57183;50.930;5.406;2023-02-03T09:16:43;5.57;;;1.30;;
69900;SDS011;57183;50.930;5.406;2023-02-03T09:19:08;3.42;;;0.90;;
69900;SDS011;57183;50.930;5.406;2023-02-03T09:21:34;3.00;;;0.90;;
69900;SDS011;57183;50.930;5.406;2023-02-03T09:24:00;3.20;;;0.90;;
69900;SDS011;57183;50.930;5.406;2023-02-03T09:26:27;4.95;;;1.00;;
69900;SDS011;57183;50.930;5.406;2023-02-03T09:28:53;2.47;;;1.35;;
69900;SDS011;57183;50.930;5.406;2023-02-03T09:31:18;2.80;;;1.00;;
69900;SDS011;57183;50.930;5.406;2023-02-03T09:33:44;3.42;;;1.25;;
69900;SDS011;57183;50.930;5.406;2023-02-03T09:36:10;5.20;;;1.02;;
69900;SDS011;57183;50.930;5.406;2023-02-03T09:38:37;7.80;;;1.67;;
69900;SDS011;57183;50.930;5.406;2023-02-03T09:43:58;7.13;;;1.30;;
69900;SDS011;57183;50.930;5.406;2023-02-03T09:46:26;4.15;;;1.48;;
69900;SDS011;57183;50.930;5.406;2023-02-03T09:49:02;12.88;;;1.85;;
69900;SDS011;57183;50.930;5.406;2023-02-03T09:51:39;3.55;;;1.30;;
69900;SDS011;57183;50.930;5.406;2023-02-03T09:54:25;7.35;;;2.17;;
69900;SDS011;57183;50.930;5.406;2023-02-03T09:56:58;4.53;;;1.10;;
69900;SDS011;57183;50.930;5.406;2023-02-03T09:59:26;3.90;;;1.58;;
69900;SDS011;57183;50.930;5.406;2023-02-03T10:01:57;3.40;;;1.77;;
69900;SDS011;57183;50.930;5.406;2023-02-03T10:04:43;7.25;;;1.52;;
69900;SDS011;57183;50.930;5.406;2023-02-03T10:07:35;5.13;;;1.55;;
69900;SDS011;57183;50.930;5.406;2023-02-03T10:10:31;7.50;;;1.48;;
69900;SDS011;57183;50.930;5.406;2023-02-03T10:18:30;3.05;;;1.63;;
69900;SDS011;57183;50.930;5.406;2023-02-03T10:21:02;2.53;;;1.35;;
69900;SDS011;57183;50.930;5.406;2023-02-03T10:23:36;11.97;;;2.50;;
69900;SDS011;57183;50.930;5.406;2023-02-03T10:26:09;8.45;;;2.03;;
69900;SDS011;57183;50.930;5.406;2023-02-03T10:31:31;3.83;;;2.55;;
69900;SDS011;57183;50.930;5.406;2023-02-03T10:34:10;5.78;;;2.35;;
69900;SDS011;57183;50.930;5.406;2023-02-03T10:36:56;3.67;;;2.00;;
69900;SDS011;57183;50.930;5.406;2023-02-03T10:42:00;7.40;;;2.58;;
69900;SDS011;57183;50.930;5.406;2023-02-03T10:44:39;10.55;;;2.67;;
69900;SDS011;57183;50.930;5.406;2023-02-03T10:47:32;8.82;;;2.40;;
69900;SDS011;57183;50.930;5.406;2023-02-03T10:50:06;7.90;;;2.75;;
69900;SDS011;57183;50.930;5.406;2023-02-03T10:52:39;4.05;;;2.15;;
69900;SDS011;57183;50.930;5.406;2023-02-03T10:55:06;4.38;;;2.50;;
69900;SDS011;57183;50.930;5.406;2023-02-03T10:57:54;5.22;;;2.90;;
69900;SDS011;57183;50.930;5.406;2023-02-03T11:00:28;2.85;;;2.28;;
69900;SDS011;57183;50.930;5.406;2023-02-03T11:02:57;3.58;;;2.85;;
69900;SDS011;57183;50.930;5.406;2023-02-03T11:05:30;7.95;;;2.83;;
69900;SDS011;57183;50.930;5.406;2023-02-03T11:07:56;7.30;;;3.10;;
69900;SDS011;57183;50.930;5.406;2023-02-03T11:10:29;5.25;;;3.08;;
69900;SDS011;57183;50.930;5.406;2023-02-03T11:18:43;8.43;;;3.72;;
69900;SDS011;57183;50.930;5.406;2023-02-03T11:21:30;5.53;;;3.40;;
69900;SDS011;57183;50.930;5.406;2023-02-03T11:26:42;5.20;;;3.05;;
69900;SDS011;57183;50.930;5.406;2023-02-03T11:29:21;4.35;;;3.50;;
69900;SDS011;57183;50.930;5.406;2023-02-03T11:31:50;8.18;;;4.60;;
69900;SDS011;57183;50.930;5.406;2023-02-03T11:34:18;4.07;;;2.88;;
69900;SDS011;57183;50.930;5.406;2023-02-03T11:42:31;9.18;;;3.35;;
69900;SDS011;57183;50.930;5.406;2023-02-03T11:47:52;8.70;;;3.92;;
69900;SDS011;57183;50.930;5.406;2023-02-03T11:50:38;5.80;;;3.65;;
69900;SDS011;57183;50.930;5.406;2023-02-03T11:55:56;8.85;;;4.25;;
69900;SDS011;57183;50.930;5.406;2023-02-03T11:58:49;5.22;;;4.30;;
69900;SDS011;57183;50.930;5.406;2023-02-03T12:10:46;8.00;;;4.85;;
69900;SDS011;57183;50.930;5.406;2023-02-03T12:30:57;6.45;;;4.35;;
69900;SDS011;57183;50.930;5.406;2023-02-03T12:33:32;7.45;;;5.00;;
69900;SDS011;57183;50.930;5.406;2023-02-03T12:36:06;9.30;;;4.70;;
69900;SDS011;57183;50.930;5.406;2023-02-03T12:38:49;9.77;;;4.55;;
69900;SDS011;57183;50.930;5.406;2023-02-03T12:41:27;4.38;;;3.72;;
69900;SDS011;57183;50.930;5.406;2023-02-03T12:44:00;7.25;;;4.97;;
69900;SDS011;57183;50.930;5.406;2023-02-03T12:46:36;4.18;;;2.78;;
69900;SDS011;57183;50.930;5.406;2023-02-03T12:49:14;6.82;;;4.97;;
69900;SDS011;57183;50.930;5.406;2023-02-03T12:51:42;5.32;;;4.28;;
69900;SDS011;57183;50.930;5.406;2023-02-03T13:05:33;6.40;;;4.30;;
69900;SDS011;57183;50.930;5.406;2023-02-03T13:11:07;14.52;;;5.47;;
69900;SDS011;57183;50.930;5.406;2023-02-03T13:13:41;8.80;;;5.32;;
69900;SDS011;57183;50.930;5.406;2023-02-03T13:16:12;8.20;;;4.60;;
69900;SDS011;57183;50.930;5.406;2023-02-03T13:18:41;9.05;;;5.03;;
69900;SDS011;57183;50.930;5.406;2023-02-03T13:21:11;7.32;;;4.95;;
69900;SDS011;57183;50.930;5.406;2023-02-03T13:23:40;7.40;;;5.47;;
69900;SDS011;57183;50.930;5.406;2023-02-03T13:29:12;10.98;;;5.65;;
69900;SDS011;57183;50.930;5.406;2023-02-03T13:42:32;6.63;;;5.53;;
69900;SDS011;57183;50.930;5.406;2023-02-03T13:47:33;8.60;;;5.70;;
69900;SDS011;57183;50.930;5.406;2023-02-03T13:49:59;7.63;;;5.28;;
69900;SDS011;57183;50.930;5.406;2023-02-03T13:52:46;6.32;;;4.50;;
69900;SDS011;57183;50.930;5.406;2023-02-03T13:57:59;9.98;;;5.00;;
69900;SDS011;57183;50.930;5.406;2023-02-03T14:06:09;4.95;;;3.92;;
69900;SDS011;57183;50.930;5.406;2023-02-03T14:08:59;7.80;;;4.18;;
69900;SDS011;57183;50.930;5.406;2023-02-03T14:16:34;12.57;;;3.95;;
69900;SDS011;57183;50.930;5.406;2023-02-03T14:19:04;6.97;;;3.72;;
69900;SDS011;57183;50.930;5.406;2023-02-03T14:24:20;4.72;;;2.83;;
69900;SDS011;57183;50.930;5.406;2023-02-03T14:26:49;6.55;;;2.75;;
69900;SDS011;57183;50.930;5.406;2023-02-03T14:29:27;8.20;;;3.15;;
69900;SDS011;57183;50.930;5.406;2023-02-03T14:31:57;6.07;;;3.00;;
69900;SDS011;57183;50.930;5.406;2023-02-03T14:34:36;10.82;;;3.67;;
69900;SDS011;57183;50.930;5.406;2023-02-03T14:37:23;6.63;;;3.28;;
69900;SDS011;57183;50.930;5.406;2023-02-03T14:42:46;5.28;;;4.28;;
69900;SDS011;57183;50.930;5.406;2023-02-03T14:51:26;11.18;;;6.22;;
69900;SDS011;57183;50.930;5.406;2023-02-03T14:54:23;9.15;;;4.78;;
69900;SDS011;57183;50.930;5.406;2023-02-03T15:02:19;8.18;;;6.90;;
69900;SDS011;57183;50.930;5.406;2023-02-03T15:04:49;5.53;;;5.03;;
69900;SDS011;57183;50.930;5.406;2023-02-03T15:07:35;8.55;;;4.30;;
69900;SDS011;57183;50.930;5.406;2023-02-03T15:10:18;7.00;;;4.82;;
69900;SDS011;57183;50.930;5.406;2023-02-03T15:12:47;9.98;;;6.00;;
69900;SDS011;57183;50.930;5.406;2023-02-03T15:15:31;5.20;;;4.25;;
69900;SDS011;57183;50.930;5.406;2023-02-03T15:18:19;5.95;;;4.60;;
69900;SDS011;57183;50.930;5.406;2023-02-03T15:20:50;9.25;;;5.13;;
69900;SDS011;57183;50.930;5.406;2023-02-03T15:23:20;8.45;;;4.70;;
69900;SDS011;57183;50.930;5.406;2023-02-03T15:26:00;6.38;;;4.40;;
69900;SDS011;57183;50.930;5.406;2023-02-03T15:28:28;10.23;;;3.95;;
69900;SDS011;57183;50.930;5.406;2023-02-03T15:30:59;9.30;;;4.30;;
69900;SDS011;57183;50.930;5.406;2023-02-03T15:33:47;5.22;;;3.40;;
69900;SDS011;57183;50.930;5.406;2023-02-03T15:36:17;8.35;;;3.38;;
69900;SDS011;57183;50.930;5.406;2023-02-03T15:39:12;4.85;;;3.70;;
69900;SDS011;57183;50.930;5.406;2023-02-03T15:41:50;6.72;;;3.58;;
69900;SDS011;57183;50.930;5.406;2023-02-03T15:45:01;5.80;;;3.50;;
69900;SDS011;57183;50.930;5.406;2023-02-03T15:47:29;4.38;;;3.22;;
69900;SDS011;57183;50.930;5.406;2023-02-03T15:50:01;7.82;;;3.50;;
69900;SDS011;57183;50.930;5.406;2023-02-03T15:52:31;7.60;;;3.13;;
69900;SDS011;57183;50.930;5.406;2023-02-03T15:55:26;7.40;;;3.85;;
69900;SDS011;57183;50.930;5.406;2023-02-03T15:57:55;8.20;;;3.40;;
69900;SDS011;57183;50.930;5.406;2023-02-03T16:02:53;4.97;;;2.85;;
69900;SDS011;57183;50.930;5.406;2023-02-03T16:05:29;7.18;;;3.35;;
69900;SDS011;57183;50.930;5.406;2023-02-03T16:08:23;7.22;;;4.95;;
69900;SDS011;57183;50.930;5.406;2023-02-03T16:10:58;8.93;;;3.70;;
69900;SDS011;57183;50.930;5.406;2023-02-03T16:13:25;3.85;;;3.10;;
69900;SDS011;57183;50.930;5.406;2023-02-03T16:15:59;6.03;;;3.17;;
69900;SDS011;57183;50.930;5.406;2023-02-03T16:18:27;7.47;;;3.30;;
69900;SDS011;57183;50.930;5.406;2023-02-03T16:20:53;7.90;;;3.60;;
69900;SDS011;57183;50.930;5.406;2023-02-03T16:23:20;3.90;;;3.05;;
69900;SDS011;57183;50.930;5.406;2023-02-03T16:26:22;6.93;;;4.70;;
69900;SDS011;57183;50.930;5.406;2023-02-03T16:28:42;8.95;;;3.40;;
69900;SDS011;57183;50.930;5.406;2023-02-03T16:31:27;6.70;;;3.95;;
69900;SDS011;57183;50.930;5.406;2023-02-03T16:34:16;4.70;;;3.53;;
69900;SDS011;57183;50.930;5.406;2023-02-03T16:37:01;8.00;;;3.22;;
69900;SDS011;57183;50.930;5.406;2023-02-03T16:39:55;7.88;;;2.92;;
69900;SDS011;57183;50.930;5.406;2023-02-03T16:42:39;7.53;;;3.83;;
69900;SDS011;57183;50.930;5.406;2023-02-03T16:45:23;6.90;;;2.43;;
69900;SDS011;57183;50.930;5.406;2023-02-03T16:48:11;5.63;;;3.40;;
69900;SDS011;57183;50.930;5.406;2023-02-03T16:50:56;8.45;;;3.00;;
69900;SDS011;57183;50.930;5.406;2023-02-03T16:53:30;6.35;;;3.55;;
69900;SDS011;57183;50.930;5.406;2023-02-03T16:55:57;4.15;;;3.20;;
69900;SDS011;57183;50.930;5.406;2023-02-03T16:58:24;4.20;;;2.42;;
69900;SDS011;57183;50.930;5.406;2023-02-03T17:00:51;12.05;;;5.47;;
69900;SDS011;57183;50.930;5.406;2023-02-03T17:03:18;5.47;;;2.67;;
69900;SDS011;57183;50.930;5.406;2023-02-03T17:05:49;7.63;;;2.92;;
69900;SDS011;57183;50.930;5.406;2023-02-03T17:08:16;8.40;;;3.83;;
69900;SDS011;57183;50.930;5.406;2023-02-03T17:10:43;8.18;;;3.30;;
69900;SDS011;57183;50.930;5.406;2023-02-03T17:13:10;7.55;;;4.22;;
69900;SDS011;57183;50.930;5.406;2023-02-03T17:15:40;6.28;;;3.75;;
69900;SDS011;57183;50.930;5.406;2023-02-03T17:18:07;6.50;;;3.75;;
69900;SDS011;57183;50.930;5.406;2023-02-03T17:20:33;10.70;;;3.85;;
69900;SDS011;57183;50.930;5.406;2023-02-03T17:22:59;7.22;;;3.45;;
69900;SDS011;57183;50.930;5.406;2023-02-03T17:25:24;6.38;;;3.90;;
69900;SDS011;57183;50.930;5.406;2023-02-03T17:27:50;4.60;;;3.05;;
69900;SDS011;57183;50.930;5.406;2023-02-03T17:30:16;9.13;;;4.38;;
69900;SDS011;57183;50.930;5.406;2023-02-03T17:32:41;5.35;;;3.50;;
69900;SDS011;57183;50.930;5.406;2023-02-03T17:35:07;4.53;;;3.20;;
69900;SDS011;57183;50.930;5.406;2023-02-03T17:37:33;9.40;;;3.90;;